Time;durP1;ratioP1;P1;durP2;ratioP2;P2;SDS_P1;SDS_P2;PMS_P1;PMS_P2;Temp;Humidity;BMP_temperature;BMP_pressure;BME280_temperature;BME280_humidity;BME280_pressure;Samples;Min_cycle;Max_cycle;Signal;HPM_P1;HPM_P2
2021/01/21 00:00:46;;;;;;;37.42;17.25;;;;;;;0.84;100.00;101540.12;1763978;81;21070;-60
2021/01/21 00:03:14;;;;;;;39.35;17.25;;;;;;;0.87;100.00;101535.75;1763961;80;21046;-60
2021/01/21 00:05:42;;;;;;;32.85;16.73;;;;;;;0.89;100.00;101540.21;1764065;81;21079;-59
2021/01/21 00:08:10;;;;;;;29.30;15.63;;;;;;;0.93;100.00;101541.13;1763998;81;21110;-60
2021/01/21 00:10:38;;;;;;;33.02;16.77;;;;;;;0.94;100.00;101539.85;1764098;81;21715;-60
2021/01/21 00:13:06;;;;;;;30.80;16.25;;;;;;;0.97;100.00;101545.59;1763913;81;21098;-60
2021/01/21 00:15:33;;;;;;;35.92;17.35;;;;;;;0.98;100.00;101539.45;1764130;81;20987;-60
2021/01/21 00:18:01;;;;;;;34.98;18.42;;;;;;;1.00;100.00;101537.75;1764054;81;21121;-61
2021/01/21 00:20:28;;;;;;;44.05;19.17;;;;;;;1.00;100.00;101537.75;1764095;81;21101;-60
2021/01/21 00:22:56;;;;;;;40.03;18.32;;;;;;;1.00;100.00;101539.08;1764008;81;21366;-60
2021/01/21 00:25:25;;;;;;;42.00;19.80;;;;;;;1.03;100.00;101542.19;1764070;80;20954;-60
2021/01/21 00:27:52;;;;;;;43.10;20.27;;;;;;;1.07;100.00;101542.69;1764239;81;21470;-61
2021/01/21 00:30:21;;;;;;;39.10;18.57;;;;;;;1.12;100.00;101540.59;1764094;81;21089;-60
2021/01/21 00:32:48;;;;;;;37.58;17.85;;;;;;;1.17;100.00;101537.12;1764127;81;21134;-61
2021/01/21 00:35:18;;;;;;;38.55;18.82;;;;;;;1.19;100.00;101542.00;1763898;80;21360;-60
2021/01/21 00:37:46;;;;;;;39.23;18.55;;;;;;;1.20;100.00;101538.49;1763262;80;20987;-60
2021/01/21 00:40:13;;;;;;;36.05;17.62;;;;;;;1.21;100.00;101544.23;1762432;81;20907;-60
2021/01/21 00:42:41;;;;;;;40.55;18.65;;;;;;;1.24;100.00;101541.22;1793799;80;21162;-61
2021/01/21 00:45:10;;;;;;;36.05;18.15;;;;;;;1.27;100.00;101541.72;1762437;81;21111;-60
2021/01/21 00:47:37;;;;;;;41.48;19.62;;;;;;;1.27;99.92;101539.08;1773869;80;21259;-60
2021/01/21 00:50:06;;;;;;;38.33;18.70;;;;;;;1.29;99.94;101549.23;1762351;81;21062;-60
2021/01/21 00:52:34;;;;;;;35.08;18.35;;;;;;;1.32;99.90;101542.67;1773773;80;21107;-61
2021/01/21 00:55:02;;;;;;;38.13;18.77;;;;;;;1.34;99.79;101536.98;1762462;81;21117;-60
2021/01/21 00:57:30;;;;;;;41.15;20.20;;;;;;;1.36;99.62;101528.64;1762374;81;21136;-60
2021/01/21 00:59:57;;;;;;;44.58;20.48;;;;;;;1.38;99.57;101526.03;1793805;80;21543;-60
2021/01/21 01:02:25;;;;;;;42.05;20.55;;;;;;;1.39;99.50;101526.03;1762348;81;21058;-60
2021/01/21 01:04:53;;;;;;;45.92;21.42;;;;;;;1.38;99.37;101528.23;1773866;80;21055;-60
2021/01/21 01:07:20;;;;;;;40.80;19.00;;;;;;;1.37;99.14;101529.09;1762408;81;21549;-61
2021/01/21 01:09:48;;;;;;;38.40;19.35;;;;;;;1.36;98.96;101527.31;1773893;80;21146;-60
2021/01/21 01:12:18;;;;;;;45.20;20.02;;;;;;;1.36;99.04;101529.95;1762361;81;21555;-60
2021/01/21 01:14:46;;;;;;;46.23;20.72;;;;;;;1.39;99.30;101527.36;1762418;81;21061;-60
2021/01/21 01:17:13;;;;;;;48.02;21.37;;;;;;;1.43;99.48;101535.78;1773971;80;21453;-60
2021/01/21 01:19:43;;;;;;;45.20;22.00;;;;;;;1.45;99.56;101532.31;1761712;81;21129;-60
2021/01/21 01:22:13;;;;;;;39.45;18.62;;;;;;;1.46;99.57;101540.69;1793751;80;21110;-60
2021/01/21 01:24:41;;;;;;;37.95;18.23;;;;;;;1.49;99.66;101536.77;1762420;81;21387;-60
2021/01/21 01:27:09;;;;;;;35.28;18.02;;;;;;;1.51;99.86;101531.94;1773786;80;21153;-60
2021/01/21 01:29:38;;;;;;;43.25;19.73;;;;;;;1.56;100.00;101526.73;1762367;81;21172;-60
2021/01/21 01:32:06;;;;;;;46.08;21.30;;;;;;;1.59;100.00;101522.81;1773797;80;21095;-60
2021/01/21 01:34:38;;;;;;;46.53;20.37;;;;;;;1.60;100.00;101524.59;1761989;81;21125;-60
2021/01/21 01:37:08;;;;;;;41.92;21.12;;;;;;;1.59;100.00;101526.77;1771074;80;21373;-60
2021/01/21 01:39:37;;;;;;;38.02;20.10;;;;;;;1.60;100.00;101520.62;1762127;81;21214;-59
2021/01/21 01:42:10;;;;;;;35.80;17.90;;;;;;;1.61;100.00;101519.75;1777243;80;21135;-59
2021/01/21 01:44:39;;;;;;;38.67;18.35;;;;;;;1.63;100.00;101516.69;1778203;80;21176;-59
2021/01/21 01:47:09;;;;;;;35.52;18.52;;;;;;;1.65;100.00;101512.77;1762686;81;21133;-60
2021/01/21 01:49:38;;;;;;;37.50;18.55;;;;;;;1.69;100.00;101518.55;1754908;80;21382;-60
2021/01/21 01:52:06;;;;;;;41.13;17.55;;;;;;;1.70;100.00;101522.55;1778375;80;21048;-61
2021/01/21 01:54:34;;;;;;;34.27;17.42;;;;;;;1.72;100.00;101518.58;1787073;80;21068;-59
2021/01/21 01:57:04;;;;;;;39.18;17.75;;;;;;;1.73;100.00;101516.39;1783888;80;21113;-60
2021/01/21 01:59:37;;;;;;;39.08;18.25;;;;;;;1.73;100.00;101522.13;1787092;80;21068;-59
2021/01/21 02:02:04;;;;;;;40.78;19.73;;;;;;;1.74;100.00;101522.13;1787055;80;21202;-60
2021/01/21 02:04:34;;;;;;;42.98;20.40;;;;;;;1.75;100.00;101525.69;1786814;80;21170;-60
2021/01/21 02:07:14;;;;;;;41.77;20.57;;;;;;;1.71;100.00;101523.00;1786718;80;21088;-59
2021/01/21 02:09:49;;;;;;;40.10;19.45;;;;;;;1.68;100.00;101521.64;1777396;80;21115;-60
2021/01/21 02:12:52;;;;;;;39.85;20.20;;;;;;;1.64;100.00;101518.92;1787088;80;21158;-59
2021/01/21 02:15:41;;;;;;;44.83;20.43;;;;;;;1.62;100.00;101524.17;1787055;80;22720;-60
2021/01/21 02:18:46;;;;;;;43.40;20.52;;;;;;;1.59;100.00;101521.94;1787124;80;21189;-61
2021/01/21 02:21:41;;;;;;;43.45;22.13;;;;;;;1.54;100.00;101520.54;1787195;80;20973;-60
2021/01/21 02:24:50;;;;;;;41.98;20.40;;;;;;;1.49;100.00;101517.81;1754359;80;21103;-60
2021/01/21 02:27:19;;;;;;;44.38;21.68;;;;;;;1.45;100.00;101519.09;1787061;80;21135;-60
2021/01/21 02:29:48;;;;;;;47.95;22.67;;;;;;;1.42;100.00;101523.44;1786706;80;39283;-60
2021/01/21 02:32:51;;;;;;;45.73;22.55;;;;;;;1.39;100.00;101525.16;1787035;80;21080;-60
2021/01/21 02:35:20;;;;;;;40.95;20.20;;;;;;;1.38;100.00;101523.39;1786609;80;21139;-60
2021/01/21 02:37:55;;;;;;;44.23;21.07;;;;;;;1.32;100.00;101536.06;1786295;80;21119;-60
2021/01/21 02:40:24;;;;;;;42.30;19.45;;;;;;;1.29;100.00;101524.13;1759835;80;21076;-60
2021/01/21 02:43:11;;;;;;;43.08;19.20;;;;;;;1.26;100.00;101534.66;1785255;80;21716;-60
2021/01/21 02:45:40;;;;;;;67.20;31.02;;;;;;;1.23;100.00;101531.52;1785396;80;21178;-60
2021/01/21 02:48:08;;;;;;;41.40;19.73;;;;;;;1.16;100.00;101530.97;1762587;81;21180;-59
2021/01/21 02:50:47;;;;;;;84.42;38.17;;;;;;;0.89;99.21;101528.74;1775766;80;21095;-60
2021/01/21 02:53:14;;;;;;;51.92;25.70;;;;;;;0.69;98.91;101534.14;1762683;81;21037;-59
2021/01/21 02:55:53;;;;;;;31.87;17.10;;;;;;;0.58;98.74;101533.47;1776729;80;21804;-60
2021/01/21 02:58:35;;;;;;;37.15;18.00;;;;;;;0.54;99.07;101541.31;1762681;81;21171;-60
2021/01/21 03:01:05;;;;;;;37.83;18.17;;;;;;;0.61;99.79;101536.17;1769803;80;21499;-59
2021/01/21 03:03:33;;;;;;;37.93;18.15;;;;;;;0.68;100.00;101538.95;1762643;81;21061;-59
2021/01/21 03:06:03;;;;;;;36.90;18.77;;;;;;;0.75;100.00;101533.33;1776427;80;21091;-59
2021/01/21 03:08:33;;;;;;;37.23;19.77;;;;;;;0.82;100.00;101536.98;1762542;81;21213;-59
2021/01/21 03:11:13;;;;;;;47.80;22.15;;;;;;;0.87;100.00;101538.39;1776706;80;21144;-60
2021/01/21 03:13:44;;;;;;;71.65;33.35;;;;;;;0.89;100.00;101534.02;1762027;81;21509;-60
2021/01/21 03:16:12;;;;;;;72.40;33.73;;;;;;;0.81;100.00;101534.79;1776780;80;21126;-60
2021/01/21 03:18:40;;;;;;;40.63;18.80;;;;;;;0.56;99.37;101539.61;1762745;81;21541;-59
2021/01/21 03:21:08;;;;;;;39.05;19.67;;;;;;;0.43;99.16;101541.09;1777018;80;22269;-59
2021/01/21 03:23:43;;;;;;;36.98;18.07;;;;;;;0.48;99.91;101545.16;1762082;81;21445;-59
2021/01/21 03:26:13;;;;;;;43.05;18.67;;;;;;;0.56;100.00;101538.30;1776603;80;21071;-59
2021/01/21 03:28:42;;;;;;;39.55;19.40;;;;;;;0.64;100.00;101541.50;1762512;81;21065;-59
2021/01/21 03:31:11;;;;;;;40.28;18.67;;;;;;;0.70;100.00;101533.69;1776822;80;21115;-60
2021/01/21 03:33:39;;;;;;;34.83;17.35;;;;;;;0.77;100.00;101539.97;1762681;81;21365;-60
2021/01/21 03:36:07;;;;;;;42.90;19.65;;;;;;;0.82;100.00;101548.86;1776842;80;21332;-60
2021/01/21 03:38:35;;;;;;;44.20;20.52;;;;;;;0.83;100.00;101543.62;1731001;82;21069;-60
2021/01/21 03:41:04;;;;;;;41.18;20.15;;;;;;;0.88;100.00;101550.73;1721438;82;21202;-59
2021/01/21 03:43:34;;;;;;;48.98;23.40;;;;;;;0.91;100.00;101549.05;1731195;82;21139;-59
2021/01/21 03:46:22;;;;;;;35.48;18.37;;;;;;;0.93;100.00;101553.02;1730700;82;21393;-60
2021/01/21 03:48:50;;;;;;;36.25;18.27;;;;;;;0.79;100.00;101556.73;1731133;82;21128;-60
2021/01/21 03:51:22;;;;;;;38.42;19.50;;;;;;;0.58;100.00;101565.14;1722806;82;21140;-60
2021/01/21 03:53:51;;;;;;;40.50;19.73;;;;;;;0.47;100.00;101564.48;1729534;82;21160;-60
2021/01/21 03:56:21;;;;;;;37.93;19.23;;;;;;;0.53;100.00;101563.73;1730568;82;21140;-60
2021/01/21 03:58:49;;;;;;;39.53;19.50;;;;;;;0.57;100.00;101560.28;1731136;82;21712;-60
2021/01/21 04:01:18;;;;;;;35.95;18.27;;;;;;;0.65;100.00;101567.03;1731120;82;21184;-59
2021/01/21 04:03:50;;;;;;;39.48;18.92;;;;;;;0.70;100.00;101565.36;1731148;82;21057;-59
2021/01/21 04:06:18;;;;;;;35.43;18.02;;;;;;;0.75;100.00;101557.09;1704282;82;21192;-60
2021/01/21 04:08:47;;;;;;;34.65;18.67;;;;;;;0.78;100.00;101561.14;1731095;82;21125;-59
2021/01/21 04:11:28;;;;;;;38.92;18.32;;;;;;;0.79;100.00;101559.37;1730414;82;21437;-60
2021/01/21 04:13:58;;;;;;;40.17;18.07;;;;;;;0.80;100.00;101562.05;1730891;82;21187;-59
2021/01/21 04:16:26;;;;;;;34.98;17.20;;;;;;;0.82;100.00;101567.34;1731132;82;21470;-60
2021/01/21 04:18:54;;;;;;;32.50;16.55;;;;;;;0.83;100.00;101558.14;1731164;82;22056;-60
2021/01/21 04:21:24;;;;;;;31.73;16.37;;;;;;;0.86;100.00;101566.53;1731129;82;21002;-59
2021/01/21 04:23:59;;;;;;;32.67;17.07;;;;;;;0.88;100.00;101571.85;1730406;82;21209;-60
2021/01/21 04:26:25;;;;;;;38.88;18.27;;;;;;;0.90;100.00;101570.13;1729971;82;21084;-60
2021/01/21 04:28:54;;;;;;;42.65;18.52;;;;;;;0.90;100.00;101563.52;1731158;82;21081;-60
2021/01/21 04:31:23;;;;;;;35.25;18.07;;;;;;;0.91;100.00;101566.21;1747390;82;21053;-60
2021/01/21 04:33:50;;;;;;;36.28;16.67;;;;;;;0.91;100.00;101573.22;1755996;81;21151;-60
2021/01/21 04:36:20;;;;;;;32.15;16.00;;;;;;;0.83;100.00;101575.30;1755557;81;21167;-60
2021/01/21 04:38:49;;;;;;;29.72;15.18;;;;;;;0.77;100.00;101581.77;1742463;80;21154;-60
2021/01/21 04:41:18;;;;;;;34.48;17.55;;;;;;;0.79;100.00;101581.81;1739730;82;21185;-60
2021/01/21 04:43:47;;;;;;;35.65;18.07;;;;;;;0.82;100.00;101590.69;1735504;82;21153;-59
2021/01/21 04:46:17;;;;;;;32.00;16.50;;;;;;;0.84;100.00;101584.09;1738156;82;21105;-60
2021/01/21 04:48:47;;;;;;;29.72;15.80;;;;;;;0.87;100.00;101584.59;1739374;82;22125;-60
2021/01/21 04:51:15;;;;;;;35.10;16.70;;;;;;;0.88;100.00;101583.73;1739687;82;21082;-61
2021/01/21 04:53:52;;;;;;;28.77;15.93;;;;;;;0.91;100.00;101578.50;1739371;82;21138;-60
2021/01/21 04:56:25;;;;;;;32.95;18.40;;;;;;;0.91;100.00;101583.78;1738308;82;21192;-60
2021/01/21 04:59:14;;;;;;;39.60;19.98;;;;;;;0.68;100.00;101594.80;1669520;85;21141;-60
2021/01/21 05:01:51;;;;;;;34.63;17.33;;;;;;;0.55;100.00;101595.91;1888156;76;23087;-60
2021/01/21 05:04:19;;;;;;;31.97;15.35;;;;;;;0.44;100.00;101598.73;1774906;80;20921;-59
2021/01/21 05:07:00;;;;;;;31.80;15.50;;;;;;;0.47;100.00;101596.59;1807722;77;22595;-60
2021/01/21 05:09:28;;;;;;;33.20;16.45;;;;;;;0.42;100.00;101593.41;1822829;78;21447;-60
2021/01/21 05:11:56;;;;;;;34.85;16.05;;;;;;;0.45;100.00;101595.23;1756205;80;21364;-59
2021/01/21 05:14:27;;;;;;;31.85;15.48;;;;;;;0.46;100.00;101602.29;1755566;81;20952;-60
2021/01/21 05:17:15;;;;;;;29.02;14.85;;;;;;;0.50;100.00;101601.48;1626314;87;21168;-60
2021/01/21 05:19:52;;;;;;;30.12;14.38;;;;;;;0.55;100.00;101604.23;1621932;88;21099;-60
2021/01/21 05:22:39;;;;;;;25.17;14.93;;;;;;;0.64;100.00;101603.53;1871921;76;27878;-61
2021/01/21 05:25:28;;;;;;;29.77;14.05;;;;;;;0.67;100.00;101602.27;1774789;80;21043;-60
2021/01/21 05:27:59;;;;;;;25.95;12.70;;;;;;;0.73;100.00;101599.73;1802511;79;21538;-60
2021/01/21 05:30:31;;;;;;;26.55;13.43;;;;;;;0.77;100.00;101606.84;1812365;77;21047;-60
2021/01/21 05:33:00;;;;;;;28.85;14.53;;;;;;;0.82;100.00;101610.48;1849391;77;20919;-60
2021/01/21 05:35:29;;;;;;;30.65;15.55;;;;;;;0.84;100.00;101608.77;1742110;80;21051;-60
2021/01/21 05:37:58;;;;;;;37.90;16.40;;;;;;;0.87;100.00;101609.69;1721771;81;21056;-60
2021/01/21 05:40:48;;;;;;;38.23;16.80;;;;;;;0.84;100.00;101614.05;1774789;80;21607;-60
2021/01/21 05:43:35;;;;;;;31.15;16.10;;;;;;;0.79;100.00;101603.84;1849305;77;20952;-60
2021/01/21 05:46:13;;;;;;;30.90;15.45;;;;;;;0.77;100.00;101604.20;1779602;79;20996;-61
2021/01/21 05:48:41;;;;;;;33.63;16.55;;;;;;;0.79;100.00;101607.80;1774746;80;21185;-61
2021/01/21 05:51:09;;;;;;;34.98;17.10;;;;;;;0.84;100.00;101602.16;1793107;77;21490;-61
2021/01/21 05:53:39;;;;;;;32.93;15.90;;;;;;;0.92;100.00;101605.38;1819601;77;21441;-61
2021/01/21 05:56:10;;;;;;;35.75;15.72;;;;;;;0.96;100.00;101596.64;1806171;79;20964;-61
2021/01/21 05:58:40;;;;;;;32.85;15.78;;;;;;;1.05;100.00;101594.59;1770911;80;21566;-60
2021/01/21 06:01:08;;;;;;;31.73;16.07;;;;;;;1.16;100.00;101602.30;1849230;77;21003;-60
2021/01/21 06:03:38;;;;;;;35.17;17.85;;;;;;;1.28;100.00;101602.94;1747046;80;21082;-60
2021/01/21 06:06:21;;;;;;;33.55;16.80;;;;;;;1.37;100.00;101599.13;1772998;81;21486;-62
2021/01/21 06:08:49;;;;;;;37.28;17.95;;;;;;;1.43;100.00;101593.05;1723306;80;21131;-60
2021/01/21 06:11:20;;;;;;;38.30;18.37;;;;;;;1.49;100.00;101596.23;1806539;79;20976;-60
2021/01/21 06:13:48;;;;;;;46.92;22.27;;;;;;;1.55;100.00;101601.61;1849300;77;21054;-61
2021/01/21 06:16:16;;;;;;;49.63;22.58;;;;;;;1.61;100.00;101596.86;1849298;77;20936;-60
2021/01/21 06:18:44;;;;;;;41.48;19.15;;;;;;;1.67;100.00;101605.79;1849325;77;21684;-60
2021/01/21 06:21:25;;;;;;;35.63;17.70;;;;;;;1.73;100.00;101601.45;1830982;77;21097;-59
2021/01/21 06:24:04;;;;;;;39.73;18.60;;;;;;;1.84;100.00;101605.13;1762073;81;21086;-61
2021/01/21 06:26:46;;;;;;;51.45;24.85;;;;;;;1.93;100.00;101613.22;1793046;80;21077;-60
2021/01/21 06:29:17;;;;;;;51.65;22.55;;;;;;;2.04;99.94;101608.50;1762184;81;21126;-60
2021/01/21 06:31:55;;;;;;;55.83;23.98;;;;;;;2.11;99.52;101609.94;1793622;80;21196;-60
2021/01/21 06:34:25;;;;;;;51.53;23.47;;;;;;;2.19;99.20;101615.34;1761495;80;21070;-60
2021/01/21 06:37:02;;;;;;;58.25;26.17;;;;;;;2.25;98.99;101619.38;1793191;80;21538;-60
2021/01/21 06:39:56;;;;;;;55.37;27.13;;;;;;;2.35;98.71;101630.98;1798907;78;22878;-60
2021/01/21 06:42:41;;;;;;;49.67;23.87;;;;;;;2.36;98.43;101627.92;1773051;81;20998;-61
2021/01/21 06:45:10;;;;;;;69.05;30.10;;;;;;;2.41;98.10;101632.83;1773500;81;21546;-60
2021/01/21 06:47:37;;;;;;;88.05;37.08;;;;;;;2.47;97.77;101636.87;1773476;81;21081;-61
2021/01/21 06:50:06;;;;;;;90.95;37.98;;;;;;;2.49;97.30;101634.26;1773544;81;20981;-60
2021/01/21 06:52:36;;;;;;;86.28;37.70;;;;;;;2.46;96.53;101640.39;1773391;81;21015;-61
2021/01/21 06:55:10;;;;;;;86.90;35.63;;;;;;;2.43;96.16;101635.06;1753891;81;20986;-60
2021/01/21 06:57:42;;;;;;;97.00;41.87;;;;;;;2.40;95.71;101637.67;1713475;82;21372;-61
2021/01/21 07:00:14;;;;;;;90.67;39.65;;;;;;;2.40;95.43;101642.97;1742593;82;20995;-59
2021/01/21 07:02:48;;;;;;;103.72;42.38;;;;;;;2.37;95.18;101642.92;1742767;82;21062;-61
2021/01/21 07:05:20;;;;;;;94.05;40.55;;;;;;;2.38;95.06;101648.67;1742718;82;21510;-60
2021/01/21 07:08:01;;;;;;;88.20;37.73;;;;;;;2.39;94.77;101653.09;1742756;82;21054;-61
2021/01/21 07:10:42;;;;;;;84.28;36.17;;;;;;;2.39;94.39;101647.80;1742728;82;21350;-61
2021/01/21 07:13:21;;;;;;;77.80;34.73;;;;;;;2.36;93.94;101647.77;1742683;82;21164;-60
2021/01/21 07:15:57;;;;;;;73.78;32.83;;;;;;;2.35;93.83;101645.99;1742719;82;21086;-61
2021/01/21 07:18:31;;;;;;;66.37;30.68;;;;;;;2.38;93.89;101649.55;1742399;82;21666;-61
2021/01/21 07:21:11;;;;;;;65.42;28.10;;;;;;;2.44;93.68;101644.78;1742761;82;20983;-60
2021/01/21 07:23:52;;;;;;;63.08;28.05;;;;;;;2.47;93.50;101642.16;1742673;82;21532;-60
2021/01/21 07:26:44;;;;;;;52.75;25.23;;;;;;;2.53;92.93;101651.50;1742694;82;21050;-61
2021/01/21 07:29:19;;;;;;;53.40;23.18;;;;;;;2.55;92.73;101653.77;1742697;82;21121;-60
2021/01/21 07:31:59;;;;;;;52.15;23.77;;;;;;;2.58;92.24;101647.18;1742876;82;20991;-60
2021/01/21 07:34:37;;;;;;;44.13;21.95;;;;;;;2.61;91.95;101642.78;1742778;82;20955;-60
2021/01/21 07:37:24;;;;;;;42.70;21.45;;;;;;;2.66;91.81;101639.75;1747855;81;21447;-60
2021/01/21 07:39:57;;;;;;;40.13;18.70;;;;;;;2.72;91.63;101638.08;1777433;80;21593;-60
2021/01/21 07:42:40;;;;;;;37.05;18.48;;;;;;;2.80;91.30;101634.61;1777663;80;27512;-60
2021/01/21 07:45:21;;;;;;;35.28;18.20;;;;;;;2.85;90.90;101643.08;1703679;84;21058;-60
2021/01/21 07:47:55;;;;;;;40.48;17.98;;;;;;;2.93;90.76;101635.22;1732796;82;21157;-60
2021/01/21 07:50:26;;;;;;;33.38;17.17;;;;;;;3.00;90.37;101641.02;1731760;82;21413;-60
2021/01/21 07:53:02;;;;;;;33.78;17.10;;;;;;;3.07;90.01;101644.64;1732295;82;28278;-61
2021/01/21 07:55:37;;;;;;;35.50;16.73;;;;;;;3.18;89.35;101643.84;1703143;83;21015;-60
2021/01/21 07:58:35;;;;;;;34.90;16.95;;;;;;;3.24;88.01;101646.58;1732395;82;21542;-60
2021/01/21 08:01:06;;;;;;;53.48;23.20;;;;;;;3.29;87.59;101650.16;1703203;83;21125;-60
2021/01/21 08:03:40;;;;;;;54.53;22.85;;;;;;;3.36;86.84;101655.95;1732114;82;21219;-59
2021/01/21 08:06:17;;;;;;;;;;;;;;;3.39;86.50;101653.33;1734817;82;21586;-58
2021/01/21 08:08:50;;;;;;;47.55;21.37;;;;;;;3.43;86.04;101649.86;1732281;82;20230;-59
2021/01/21 08:11:21;;;;;;;50.38;19.35;;;;;;;3.49;85.79;101651.66;1703239;84;21213;-59
2021/01/21 08:13:57;;;;;;;38.17;17.32;;;;;;;3.60;85.36;101663.67;1732225;82;21162;-59
2021/01/21 08:16:24;;;;;;;37.98;15.18;;;;;;;3.69;84.58;101661.13;1732272;82;22340;-59
2021/01/21 08:19:02;;;;;;;33.92;15.60;;;;;;;3.84;84.19;101668.73;1732076;82;21142;-59
2021/01/21 08:21:29;;;;;;;29.25;14.07;;;;;;;3.96;83.38;101668.84;1732128;82;21182;-60
2021/01/21 08:24:02;;;;;;;28.73;14.40;;;;;;;4.08;82.37;101675.09;1732116;82;21158;-60
2021/01/21 08:26:31;;;;;;;27.65;12.75;;;;;;;4.16;80.79;101665.44;1703127;84;21174;-60
2021/01/21 08:28:59;;;;;;;29.45;13.85;;;;;;;4.25;80.77;101669.92;1732130;82;21367;-59
2021/01/21 08:31:42;;;;;;;27.95;13.20;;;;;;;4.35;80.16;101673.52;1732013;82;20976;-59
2021/01/21 08:34:22;;;;;;;37.93;17.20;;;;;;;4.47;79.51;101676.22;1701323;82;21154;-59
2021/01/21 08:36:49;;;;;;;40.20;18.27;;;;;;;4.54;79.21;101674.48;1703212;83;21185;-59
2021/01/21 08:39:17;;;;;;;33.50;15.20;;;;;;;4.56;78.50;101674.95;1728865;81;21196;-60
2021/01/21 08:41:45;;;;;;;26.37;13.00;;;;;;;4.61;77.95;101680.73;1725633;83;21205;-60
2021/01/21 08:44:17;;;;;;;22.58;12.25;;;;;;;4.62;77.41;101673.20;1648125;83;21189;-61
2021/01/21 08:47:01;;;;;;;22.37;11.50;;;;;;;4.65;77.21;101674.11;1725607;83;21074;-61
2021/01/21 08:49:34;;;;;;;20.75;11.03;;;;;;;4.71;76.95;101673.23;1725528;83;21166;-60
2021/01/21 08:52:07;;;;;;;20.82;11.85;;;;;;;4.76;76.72;101670.60;1725519;82;21182;-61
2021/01/21 08:54:34;;;;;;;;;;;;;;;4.77;76.40;101673.28;1728146;83;21204;-60
2021/01/21 08:57:14;;;;;;;22.15;10.85;;;;;;;4.82;75.93;101675.50;1720624;83;20229;-61
2021/01/21 08:59:43;;;;;;;18.73;10.90;;;;;;;4.82;75.71;101672.84;1693636;83;21587;-61
2021/01/21 09:02:12;;;;;;;23.73;11.25;;;;;;;4.83;75.62;101673.30;1693372;83;21118;-61
2021/01/21 09:04:45;;;;;;;20.82;11.48;;;;;;;4.83;75.59;101665.75;1692727;83;21179;-61
2021/01/21 09:07:19;;;;;;;;;;;;;;;4.85;75.52;101658.23;1695639;83;21099;-62
2021/01/21 09:09:47;;;;;;;21.02;10.53;;;;;;;4.87;75.46;101659.12;1725083;83;20315;-62
2021/01/21 09:12:22;;;;;;;22.73;11.45;;;;;;;4.91;75.44;101660.03;1725542;82;21016;-61
2021/01/21 09:15:09;;;;;;;25.62;12.73;;;;;;;4.95;75.36;101656.50;1725659;83;21154;-61
2021/01/21 09:17:38;;;;;;;22.30;12.20;;;;;;;4.99;75.30;101653.42;1725893;83;21455;-61
2021/01/21 09:20:30;;;;;;;20.27;10.82;;;;;;;5.01;75.45;101650.32;1725579;82;20952;-61
2021/01/21 09:23:20;;;;;;;19.10;11.03;;;;;;;5.01;75.36;101651.66;1724204;83;21551;-56
2021/01/21 09:25:48;;;;;;;18.02;11.03;;;;;;;5.00;75.46;101646.77;1725596;83;21112;-56
2021/01/21 09:28:16;;;;;;;22.37;11.28;;;;;;;5.02;75.64;101649.44;1693416;83;21471;-56
2021/01/21 09:30:44;;;;;;;21.62;11.45;;;;;;;5.05;75.72;101648.53;1725745;83;21701;-56
2021/01/21 09:33:13;;;;;;;20.02;11.30;;;;;;;5.04;75.80;101645.01;1725633;83;21718;-56
2021/01/21 09:35:42;;;;;;;19.52;11.05;;;;;;;5.06;75.99;101644.99;1725428;81;21155;-56
2021/01/21 09:38:10;;;;;;;19.07;10.98;;;;;;;5.04;75.90;101638.78;1707253;82;21201;-56
2021/01/21 09:40:38;;;;;;;19.00;10.13;;;;;;;5.03;76.08;101637.92;1709596;84;20967;-56
2021/01/21 09:43:05;;;;;;;19.37;11.22;;;;;;;5.04;76.42;101631.72;1709698;84;21075;-57
2021/01/21 09:45:35;;;;;;;19.05;10.55;;;;;;;5.07;76.69;101629.06;1709666;84;21396;-56
2021/01/21 09:48:04;;;;;;;21.80;11.68;;;;;;;5.14;76.87;101643.26;1709538;84;20971;-56
2021/01/21 09:50:34;;;;;;;17.90;10.70;;;;;;;5.18;77.00;101635.73;1709578;84;21177;-55
2021/01/21 09:53:02;;;;;;;21.07;10.63;;;;;;;5.24;77.12;101637.52;1709612;84;21161;-55
2021/01/21 09:55:30;;;;;;;20.57;11.80;;;;;;;5.25;77.36;101635.30;1709645;84;21176;-56
2021/01/21 09:57:58;;;;;;;21.68;10.43;;;;;;;5.27;77.51;101634.86;1709635;84;21498;-55
2021/01/21 10:00:27;;;;;;;22.80;11.08;;;;;;;5.30;77.58;101630.87;1709626;84;20971;-55
2021/01/21 10:02:55;;;;;;;18.62;10.55;;;;;;;5.35;77.76;101626.89;1709618;84;21090;-54
2021/01/21 10:05:23;;;;;;;20.02;10.25;;;;;;;5.35;77.96;101618.91;1709659;84;21252;-56
2021/01/21 10:07:50;;;;;;;16.82;9.95;;;;;;;5.32;78.04;101618.45;1709708;84;21234;-55
2021/01/21 10:10:18;;;;;;;24.98;10.60;;;;;;;5.29;78.12;101615.80;1709634;84;22170;-55
2021/01/21 10:12:46;;;;;;;20.52;10.72;;;;;;;5.27;78.22;101614.91;1709570;84;21030;-55
2021/01/21 10:15:15;;;;;;;20.92;10.63;;;;;;;5.25;78.43;101612.70;1709605;83;20975;-54
2021/01/21 10:17:43;;;;;;;19.10;10.25;;;;;;;5.26;78.65;101606.50;1709410;84;21129;-54
2021/01/21 10:20:13;;;;;;;20.52;10.75;;;;;;;5.25;78.79;101602.93;1717643;82;21213;-55
2021/01/21 10:22:40;;;;;;;19.07;10.32;;;;;;;5.27;79.23;101598.50;1709512;84;22032;-55
2021/01/21 10:25:09;;;;;;;19.95;11.25;;;;;;;5.28;79.29;101590.09;1728808;82;21086;-56
2021/01/21 10:27:37;;;;;;;20.97;10.72;;;;;;;5.26;79.68;101597.19;1738508;82;21095;-56
2021/01/21 10:30:07;;;;;;;18.25;10.53;;;;;;;5.25;79.92;101587.44;1738522;82;21058;-56
2021/01/21 10:32:35;;;;;;;21.35;11.43;;;;;;;5.25;79.94;101577.67;1738761;82;21169;-55
2021/01/21 10:35:05;;;;;;;19.60;10.08;;;;;;;5.24;80.40;101573.23;1738043;82;21384;-56
2021/01/21 10:37:33;;;;;;;18.60;10.98;;;;;;;5.25;80.47;101571.02;1727844;82;21165;-56
2021/01/21 10:40:01;;;;;;;20.95;11.60;;;;;;;5.26;80.74;101566.15;1728374;82;21164;-56
2021/01/21 10:42:28;;;;;;;22.67;11.20;;;;;;;5.24;81.07;101567.05;1732559;82;21076;-56
2021/01/21 10:44:56;;;;;;;18.20;10.35;;;;;;;5.25;81.31;101564.84;1732611;82;21690;-56
2021/01/21 10:47:25;;;;;;;23.10;10.85;;;;;;;5.22;81.67;101564.38;1732502;82;21194;-56
2021/01/21 10:49:53;;;;;;;21.33;10.93;;;;;;;5.22;82.01;101555.53;1732612;82;21234;-56
2021/01/21 10:52:21;;;;;;;19.15;10.75;;;;;;;5.22;82.38;101552.41;1732450;82;21159;-55
2021/01/21 10:54:49;;;;;;;22.13;11.18;;;;;;;5.17;82.46;101552.87;1732519;82;21116;-55
2021/01/21 10:57:17;;;;;;;19.25;10.35;;;;;;;5.11;82.89;101548.42;1732306;82;21108;-56
2021/01/21 10:59:44;;;;;;;17.20;9.28;;;;;;;5.09;83.23;101546.67;1732296;82;21438;-56
2021/01/21 11:02:13;;;;;;;19.25;10.90;;;;;;;5.07;83.32;101540.01;1717416;82;21165;-56
2021/01/21 11:04:41;;;;;;;21.45;11.60;;;;;;;5.07;83.30;101537.35;1719213;82;21199;-56
2021/01/21 11:07:09;;;;;;;18.35;10.35;;;;;;;5.10;83.35;101533.36;1716616;82;21073;-56
2021/01/21 11:09:37;;;;;;;16.95;10.13;;;;;;;5.14;83.43;101532.93;1716943;82;21085;-56
2021/01/21 11:12:06;;;;;;;15.78;9.15;;;;;;;5.15;83.50;101522.27;1719227;82;21695;-56
2021/01/21 11:14:35;;;;;;;16.77;9.98;;;;;;;5.18;83.71;101523.16;1736893;81;21124;-56
2021/01/21 11:17:03;;;;;;;24.43;10.95;;;;;;;5.18;83.67;101520.08;1735349;81;21143;-56
2021/01/21 11:19:32;;;;;;;18.67;10.08;;;;;;;5.21;83.85;101516.55;1739380;81;21241;-55
2021/01/21 11:22:00;;;;;;;20.48;10.35;;;;;;;5.22;83.83;101510.34;1751865;81;21159;-56
2021/01/21 11:24:29;;;;;;;19.57;10.32;;;;;;;5.24;83.71;101504.57;1751558;81;21210;-56
2021/01/21 11:26:57;;;;;;;20.20;10.32;;;;;;;5.26;83.70;101508.98;1752173;81;21199;-56
2021/01/21 11:29:25;;;;;;;17.07;9.78;;;;;;;5.29;83.78;101506.77;1752238;81;21155;-56
2021/01/21 11:31:53;;;;;;;16.60;10.10;;;;;;;5.33;83.75;101501.89;1752215;81;21151;-56
2021/01/21 11:34:22;;;;;;;18.37;10.20;;;;;;;5.32;83.74;101501.45;1752155;81;21156;-56
2021/01/21 11:36:51;;;;;;;21.42;10.20;;;;;;;5.32;83.75;101500.58;1751167;81;21386;-56